createdAt,value
2017-10-19T00:02:09.486Z,12.40
2017-10-19T00:04:37.786Z,13.50
2017-10-19T00:07:06.362Z,14.60
2017-10-19T00:09:35.269Z,12.40
2017-10-19T00:12:04.165Z,14.40
2017-10-19T00:14:32.316Z,12.83
2017-10-19T00:17:00.442Z,13.90
2017-10-19T00:19:28.572Z,13.00
2017-10-19T00:21:57.457Z,14.63
2017-10-19T00:24:27.668Z,16.33
2017-10-19T00:26:56.233Z,17.03
2017-10-19T00:29:24.373Z,13.37
2017-10-19T00:31:52.961Z,12.63
2017-10-19T00:34:21.118Z,13.20
2017-10-19T00:36:49.228Z,11.77
2017-10-19T00:39:17.349Z,14.07
2017-10-19T00:41:46.262Z,14.33
2017-10-19T00:44:14.378Z,13.77
2017-10-19T00:46:42.521Z,13.77
2017-10-19T00:49:10.673Z,14.90
2017-10-19T00:51:40.141Z,15.33
2017-10-19T00:54:08.252Z,14.00
2017-10-19T00:56:36.401Z,13.57
2017-10-19T00:59:05.276Z,14.67
2017-10-19T01:01:33.417Z,12.87
2017-10-19T01:04:01.531Z,12.83
2017-10-19T01:06:29.676Z,11.90
2017-10-19T01:08:58.604Z,11.50
2017-10-19T01:11:27.510Z,11.40
2017-10-19T01:13:55.649Z,11.20
2017-10-19T01:16:23.807Z,12.93
2017-10-19T01:18:51.922Z,13.30
2017-10-19T01:21:20.084Z,14.87
2017-10-19T01:23:48.972Z,17.53
2017-10-19T01:26:17.128Z,16.03
2017-10-19T01:28:45.705Z,16.57
2017-10-19T01:31:13.830Z,26.27
2017-10-19T01:33:41.963Z,28.73
2017-10-19T01:36:10.090Z,20.23
2017-10-19T01:38:38.231Z,20.30
2017-10-19T01:41:07.931Z,23.50
2017-10-19T01:43:36.061Z,14.40
2017-10-19T01:46:04.171Z,14.20
2017-10-19T01:48:33.079Z,14.30
2017-10-19T01:51:01.974Z,13.80
2017-10-19T01:53:30.874Z,17.17
2017-10-19T01:55:58.980Z,16.37
2017-10-19T01:58:27.119Z,15.63
2017-10-19T02:00:55.229Z,27.67
2017-10-19T02:03:23.803Z,21.03
2017-10-19T02:05:51.913Z,17.07
2017-10-19T02:08:21.253Z,15.77
2017-10-19T02:10:49.360Z,16.40
2017-10-19T02:13:17.508Z,14.80
2017-10-19T02:15:45.632Z,17.13
2017-10-19T02:18:13.773Z,17.33
2017-10-19T02:20:41.907Z,16.60
2017-10-19T02:23:10.854Z,15.50
2017-10-19T02:25:40.201Z,14.27
2017-10-19T02:28:09.105Z,14.47
2017-10-19T02:30:37.229Z,15.73
2017-10-19T02:33:05.393Z,14.40
2017-10-19T02:35:34.042Z,13.70
2017-10-19T02:38:02.166Z,15.50
2017-10-19T02:40:30.304Z,14.27
2017-10-19T02:42:58.444Z,15.13
2017-10-19T02:45:26.603Z,17.00
2017-10-19T02:47:55.490Z,17.90
2017-10-19T02:50:24.406Z,15.80
2017-10-19T02:52:52.534Z,14.30
2017-10-19T02:55:20.693Z,16.70
2017-10-19T02:57:49.802Z,14.73
2017-10-19T03:00:17.940Z,17.47
2017-10-19T03:02:46.070Z,16.47
2017-10-19T03:05:14.686Z,14.93
2017-10-19T03:07:42.797Z,15.33
2017-10-19T03:10:11.005Z,16.00
2017-10-19T03:12:39.886Z,14.93
2017-10-19T03:15:08.048Z,17.93
2017-10-19T03:17:36.658Z,15.70
2017-10-19T03:20:05.569Z,16.23
2017-10-19T03:22:33.694Z,16.43
2017-10-19T03:25:01.843Z,16.10
2017-10-19T03:27:29.964Z,16.40
2017-10-19T03:29:58.897Z,16.17
2017-10-19T03:32:27.029Z,15.67
2017-10-19T03:34:55.633Z,17.77
2017-10-19T03:37:23.771Z,16.40
2017-10-19T03:39:51.894Z,16.17
2017-10-19T03:42:20.042Z,16.67
2017-10-19T03:44:48.924Z,15.90
2017-10-19T03:47:17.837Z,16.33
2017-10-19T03:49:48.293Z,17.57
2017-10-19T03:52:16.445Z,15.50
2017-10-19T03:54:44.573Z,15.57
2017-10-19T03:57:12.722Z,15.00
2017-10-19T03:59:40.858Z,16.23
2017-10-19T04:02:09.006Z,15.50
2017-10-19T04:04:37.893Z,16.53
2017-10-19T04:07:06.034Z,15.73
2017-10-19T04:09:34.162Z,15.17
2017-10-19T04:12:03.065Z,14.60
2017-10-19T04:14:31.181Z,16.77
2017-10-19T04:16:59.329Z,15.60
2017-10-19T04:19:27.452Z,14.67
2017-10-19T04:21:56.452Z,15.60
2017-10-19T04:24:25.361Z,16.10
2017-10-19T04:26:53.481Z,15.57
2017-10-19T04:29:21.624Z,14.77
2017-10-19T04:31:49.773Z,17.73
2017-10-19T04:34:18.245Z,14.87
2017-10-19T04:36:46.437Z,15.23
2017-10-19T04:39:14.582Z,14.57
2017-10-19T04:41:45.752Z,16.90
2017-10-19T04:44:14.453Z,14.20
2017-10-19T04:46:42.581Z,17.20
2017-10-19T04:49:10.748Z,15.63
2017-10-19T04:51:39.280Z,15.40
2017-10-19T04:54:07.420Z,14.70
2017-10-19T04:56:36.317Z,18.23
2017-10-19T04:59:05.230Z,15.83
2017-10-19T05:01:33.349Z,17.10
2017-10-19T05:04:03.581Z,16.03
2017-10-19T05:06:31.737Z,14.60
2017-10-19T05:09:00.268Z,14.20
2017-10-19T05:11:29.153Z,14.03
2017-10-19T05:13:58.071Z,13.70
2017-10-19T05:16:26.601Z,13.80
2017-10-19T05:18:54.766Z,13.70
2017-10-19T05:21:23.688Z,14.27
2017-10-19T05:23:52.614Z,13.40
2017-10-19T05:26:20.748Z,12.40
2017-10-19T05:28:48.931Z,12.60
2017-10-19T05:31:17.823Z,12.50
2017-10-19T05:33:47.212Z,12.20
2017-10-19T05:36:16.121Z,13.20
2017-10-19T05:38:44.999Z,13.40
2017-10-19T05:41:13.919Z,16.07
2017-10-19T05:43:42.048Z,13.90
2017-10-19T05:46:10.188Z,14.97
2017-10-19T05:48:38.829Z,15.13
2017-10-19T05:51:08.716Z,13.37
2017-10-19T05:53:36.837Z,14.10
2017-10-19T05:56:05.826Z,15.30
2017-10-19T05:58:34.709Z,14.30
2017-10-19T06:01:03.611Z,15.30
2017-10-19T06:03:31.748Z,15.33
2017-10-19T06:05:59.882Z,15.77
2017-10-19T06:08:28.477Z,15.50
2017-10-19T06:10:56.624Z,17.07
2017-10-19T06:13:24.745Z,15.17
2017-10-19T06:15:52.901Z,13.70
2017-10-19T06:18:21.018Z,13.40
2017-10-19T06:20:49.923Z,13.30
2017-10-19T06:23:18.063Z,14.20
2017-10-19T06:25:46.224Z,14.63
2017-10-19T06:28:14.414Z,16.00
2017-10-19T06:30:43.338Z,16.73
2017-10-19T06:33:11.463Z,14.97
2017-10-19T06:35:39.615Z,15.00
2017-10-19T06:38:07.752Z,14.00
2017-10-19T06:40:36.004Z,15.07
2017-10-19T06:43:04.115Z,15.83
2017-10-19T06:45:32.277Z,15.13
2017-10-19T06:48:01.166Z,13.70
2017-10-19T06:50:30.082Z,14.47
2017-10-19T06:52:58.196Z,13.60
2017-10-19T06:55:27.566Z,14.40
2017-10-19T06:57:55.689Z,15.20
2017-10-19T07:00:24.631Z,14.27
2017-10-19T07:02:52.761Z,15.27
2017-10-19T07:05:21.339Z,16.10
2017-10-19T07:07:50.257Z,15.03
2017-10-19T07:10:18.377Z,13.13
2017-10-19T07:12:46.526Z,14.27
2017-10-19T07:15:14.723Z,13.73
2017-10-19T07:17:42.881Z,14.77
2017-10-19T07:20:11.517Z,14.23
2017-10-19T07:22:40.429Z,14.20
2017-10-19T07:25:08.823Z,14.33
2017-10-19T07:27:37.125Z,12.70
2017-10-19T07:30:05.247Z,14.53
2017-10-19T07:32:33.389Z,13.23
2017-10-19T07:35:01.849Z,13.13
2017-10-19T07:37:30.055Z,12.90
2017-10-19T07:39:58.197Z,13.37
2017-10-19T07:42:26.366Z,12.70
2017-10-19T07:44:54.507Z,13.40
2017-10-19T07:47:22.680Z,12.57
2017-10-19T07:49:50.801Z,13.83
2017-10-19T07:52:18.994Z,13.93
2017-10-19T07:54:47.113Z,14.93
2017-10-19T07:57:15.278Z,15.07
2017-10-19T07:59:43.400Z,14.60
2017-10-19T08:02:11.543Z,15.13
2017-10-19T08:04:39.665Z,13.80
2017-10-19T08:07:08.610Z,14.73
2017-10-19T08:09:36.720Z,16.23
2017-10-19T08:12:04.917Z,18.20
2017-10-19T08:14:33.814Z,15.57
2017-10-19T08:17:03.007Z,18.23
2017-10-19T08:19:31.266Z,18.17
2017-10-19T08:22:00.197Z,16.87
2017-10-19T08:24:28.331Z,18.83
2017-10-19T08:26:56.499Z,19.27
2017-10-19T08:29:24.621Z,19.87
2017-10-19T08:31:52.757Z,18.37
2017-10-19T08:34:21.642Z,19.23
2017-10-19T08:36:49.771Z,18.80
2017-10-19T08:39:17.892Z,17.93
2017-10-19T08:41:46.811Z,17.57
2017-10-19T08:44:14.924Z,17.93
2017-10-19T08:46:43.437Z,17.23
2017-10-19T08:49:12.323Z,17.80
2017-10-19T08:51:41.243Z,17.00
2017-10-19T08:54:09.376Z,16.87
2017-10-19T08:56:37.567Z,16.43
2017-10-19T08:59:06.493Z,17.70
2017-10-19T09:01:34.629Z,18.23
2017-10-19T09:04:03.662Z,17.57
2017-10-19T09:06:31.788Z,17.20
2017-10-19T09:08:59.941Z,17.87
2017-10-19T09:11:28.073Z,17.20
2017-10-19T09:13:57.226Z,18.00
2017-10-19T09:16:26.152Z,17.50
2017-10-19T09:18:54.312Z,17.97
2017-10-19T09:21:24.100Z,19.23
2017-10-19T09:23:52.253Z,17.97
2017-10-19T09:26:20.791Z,19.07
2017-10-19T09:28:49.053Z,18.57
2017-10-19T09:31:17.943Z,17.63
2017-10-19T09:33:46.846Z,18.97
2017-10-19T09:36:15.734Z,19.43
2017-10-19T09:38:44.641Z,17.83
2017-10-19T09:41:12.755Z,19.20
2017-10-19T09:43:43.583Z,19.00
2017-10-19T09:46:11.700Z,19.53
2017-10-19T09:48:40.620Z,22.30
2017-10-19T09:51:09.349Z,18.47
2017-10-19T09:53:37.484Z,19.17
2017-10-19T09:56:05.628Z,18.03
2017-10-19T09:58:34.536Z,18.60
2017-10-19T10:01:02.656Z,20.10
2017-10-19T10:03:30.769Z,19.30
2017-10-19T10:05:59.678Z,19.80
2017-10-19T10:08:27.852Z,17.73
2017-10-19T10:10:55.989Z,16.70
2017-10-19T10:13:24.116Z,17.07
2017-10-19T10:15:52.253Z,15.40
2017-10-19T10:18:21.136Z,15.93
2017-10-19T10:20:49.278Z,15.10
2017-10-19T10:23:17.398Z,12.97
2017-10-19T10:25:45.910Z,16.57
2017-10-19T10:28:14.021Z,17.00
2017-10-19T10:30:42.172Z,16.97
2017-10-19T10:33:12.335Z,16.93
2017-10-19T10:35:41.239Z,17.63
2017-10-19T10:38:09.394Z,16.63
2017-10-19T10:40:37.540Z,15.70
2017-10-19T10:43:05.662Z,15.30
2017-10-19T10:45:33.804Z,16.50
2017-10-19T10:48:01.913Z,17.17
2017-10-19T10:50:30.061Z,15.23
2017-10-19T10:52:58.204Z,17.97
2017-10-19T10:55:26.360Z,15.77
2017-10-19T10:57:54.622Z,15.20
2017-10-19T11:00:22.841Z,14.10
2017-10-19T11:02:50.974Z,13.53
2017-10-19T11:05:19.113Z,12.80
2017-10-19T11:07:48.007Z,13.30
2017-10-19T11:10:16.886Z,12.07
2017-10-19T11:12:45.786Z,13.43
2017-10-19T11:15:14.759Z,12.63
2017-10-19T11:17:42.902Z,13.50
2017-10-19T11:20:11.029Z,11.87
2017-10-19T11:22:39.944Z,11.93
2017-10-19T11:25:08.053Z,12.63
2017-10-19T11:27:36.190Z,14.13
2017-10-19T11:30:04.313Z,14.27
2017-10-19T11:32:32.453Z,13.30
2017-10-19T11:35:01.225Z,13.83
2017-10-19T11:37:29.363Z,14.50
2017-10-19T11:39:57.993Z,12.67
2017-10-19T11:42:26.136Z,13.37
2017-10-19T11:44:55.331Z,13.20
2017-10-19T11:47:24.229Z,12.83
2017-10-19T11:49:53.113Z,12.60
2017-10-19T11:52:22.022Z,12.57
2017-10-19T11:54:50.159Z,11.40
2017-10-19T11:57:18.303Z,11.70
2017-10-19T11:59:46.422Z,11.40
2017-10-19T12:02:15.337Z,11.17
2017-10-19T12:04:43.444Z,11.40
2017-10-19T12:07:11.786Z,11.70
2017-10-19T12:09:39.892Z,11.13
2017-10-19T12:12:08.046Z,12.83
2017-10-19T12:14:36.172Z,10.17
2017-10-19T12:17:05.755Z,10.80
2017-10-19T12:19:34.556Z,10.00
2017-10-19T12:22:02.735Z,11.43
2017-10-19T12:24:30.858Z,11.40
2017-10-19T12:26:58.982Z,12.00
2017-10-19T12:29:27.124Z,12.50
2017-10-19T12:31:55.253Z,10.90
2017-10-19T12:34:24.148Z,11.40
2017-10-19T12:36:53.037Z,11.13
2017-10-19T12:39:21.939Z,13.57
2017-10-19T12:41:50.070Z,10.67
2017-10-19T12:44:18.208Z,12.60
2017-10-19T12:46:46.339Z,13.30
2017-10-19T12:49:15.656Z,11.57
2017-10-19T12:51:43.768Z,11.33
2017-10-19T12:54:11.917Z,12.00
2017-10-19T12:56:40.029Z,12.93
2017-10-19T12:59:08.164Z,11.80
2017-10-19T13:01:36.303Z,11.70
2017-10-19T13:04:05.109Z,12.77
2017-10-19T13:06:33.224Z,13.30
2017-10-19T13:09:01.368Z,11.63
2017-10-19T13:11:29.916Z,11.13
2017-10-19T13:13:59.955Z,11.73
2017-10-19T13:16:28.067Z,12.17
2017-10-19T13:18:56.221Z,11.83
2017-10-19T13:21:25.406Z,11.40
2017-10-19T13:23:53.574Z,12.00
2017-10-19T13:26:21.693Z,11.67
2017-10-19T13:28:50.200Z,11.60
2017-10-19T13:31:18.368Z,13.20
2017-10-19T13:33:46.501Z,11.47
2017-10-19T13:36:15.197Z,11.37
2017-10-19T13:38:43.773Z,12.00
2017-10-19T13:41:11.915Z,11.57
2017-10-19T13:43:40.800Z,11.40
2017-10-19T13:46:09.707Z,11.70
2017-10-19T13:48:38.835Z,11.70
2017-10-19T13:51:07.293Z,13.23
2017-10-19T13:53:35.396Z,12.90
2017-10-19T13:56:04.070Z,12.33
2017-10-19T13:58:32.217Z,11.87
2017-10-19T14:01:00.365Z,12.63
2017-10-19T14:03:28.477Z,11.93
2017-10-19T14:05:56.609Z,11.53
2017-10-19T14:08:24.723Z,12.00
2017-10-19T14:10:52.861Z,11.50
2017-10-19T14:13:20.968Z,11.90
2017-10-19T14:15:49.101Z,12.20
2017-10-19T14:18:17.224Z,11.80
2017-10-19T14:20:45.374Z,12.20
2017-10-19T14:23:14.262Z,11.37
2017-10-19T14:25:43.680Z,11.87
2017-10-19T14:28:11.964Z,11.50
2017-10-19T14:30:42.616Z,12.33
2017-10-19T14:33:10.746Z,11.60
2017-10-19T14:35:39.657Z,11.03
2017-10-19T14:38:08.713Z,11.47
2017-10-19T14:40:38.364Z,11.67
2017-10-19T14:43:06.518Z,11.57
2017-10-19T14:45:35.407Z,12.00
2017-10-19T14:48:04.811Z,10.17
2017-10-19T14:50:33.704Z,11.67
2017-10-19T14:53:03.920Z,11.70
2017-10-19T14:55:32.801Z,11.23
2017-10-19T14:58:00.950Z,11.97
2017-10-19T15:00:30.520Z,11.70
2017-10-19T15:02:58.662Z,10.73
2017-10-19T15:05:26.797Z,11.37
2017-10-19T15:07:55.036Z,11.57
2017-10-19T15:10:23.378Z,11.57
2017-10-19T15:12:53.182Z,11.20
2017-10-19T15:15:21.355Z,11.40
2017-10-19T15:17:49.720Z,10.27
2017-10-19T15:20:18.068Z,10.83
2017-10-19T15:22:46.270Z,11.90
2017-10-19T15:25:14.414Z,10.87
2017-10-19T15:27:42.566Z,12.20
2017-10-19T15:30:10.684Z,12.27
2017-10-19T15:32:38.842Z,10.63
2017-10-19T15:35:08.185Z,11.23
2017-10-19T15:37:36.323Z,11.00
2017-10-19T15:40:04.451Z,10.63
2017-10-19T15:42:32.608Z,11.97
2017-10-19T15:45:02.038Z,11.13
2017-10-19T15:47:30.973Z,10.90
2017-10-19T15:49:59.083Z,10.40
2017-10-19T15:52:27.204Z,9.63
2017-10-19T15:54:55.710Z,11.23
2017-10-19T15:57:23.868Z,11.30
2017-10-19T15:59:53.526Z,9.73
2017-10-19T16:02:23.169Z,10.90
2017-10-19T16:04:51.351Z,11.50
2017-10-19T16:07:19.465Z,12.20
2017-10-19T16:09:47.618Z,12.13
2017-10-19T16:12:15.740Z,11.80
2017-10-19T16:14:44.662Z,11.90
2017-10-19T16:17:12.790Z,12.33
2017-10-19T16:19:40.940Z,12.37
2017-10-19T16:22:09.072Z,12.43
2017-10-19T16:24:37.204Z,12.17
2017-10-19T16:27:05.330Z,11.83
2017-10-19T16:29:33.477Z,14.17
2017-10-19T16:32:02.365Z,13.80
2017-10-19T16:34:31.260Z,12.53
2017-10-19T16:37:00.154Z,12.83
2017-10-19T16:39:29.114Z,13.40
2017-10-19T16:41:57.239Z,12.97
2017-10-19T16:44:25.376Z,12.97
2017-10-19T16:46:53.932Z,12.90
2017-10-19T16:49:22.073Z,12.97
2017-10-19T16:51:50.195Z,13.53
2017-10-19T16:54:18.345Z,13.13
2017-10-19T16:56:50.353Z,12.37
2017-10-19T16:59:19.945Z,13.33
2017-10-19T17:01:48.079Z,13.70
2017-10-19T17:04:17.845Z,20.73
2017-10-19T17:06:46.477Z,25.77
2017-10-19T17:09:14.988Z,14.83
2017-10-19T17:11:43.559Z,15.27
2017-10-19T17:14:12.972Z,15.40
2017-10-19T17:16:41.108Z,22.10
2017-10-19T17:19:09.226Z,18.50
2017-10-19T17:21:37.417Z,16.43
2017-10-19T17:24:06.314Z,21.77
2017-10-19T17:26:35.235Z,25.70
2017-10-19T17:29:03.476Z,16.40
2017-10-19T17:31:33.753Z,19.57
2017-10-19T17:34:02.383Z,18.63
2017-10-19T17:36:31.022Z,24.17
2017-10-19T17:38:59.142Z,15.43
2017-10-19T17:41:28.054Z,18.00
2017-10-19T17:43:56.185Z,16.97
2017-10-19T17:46:24.320Z,15.10
2017-10-19T17:48:55.377Z,17.30
2017-10-19T17:51:23.621Z,15.70
2017-10-19T17:53:55.253Z,13.60
2017-10-19T17:56:24.185Z,11.30
2017-10-19T17:58:52.302Z,12.33
2017-10-19T18:01:20.972Z,12.30
2017-10-19T18:03:49.128Z,10.80
2017-10-19T18:06:18.962Z,13.60
2017-10-19T18:08:47.136Z,12.50
2017-10-19T18:11:15.280Z,11.60
2017-10-19T18:13:43.417Z,11.90
2017-10-19T18:16:12.298Z,12.00
2017-10-19T18:18:43.720Z,14.83
2017-10-19T18:21:11.838Z,18.20
2017-10-19T18:23:42.754Z,18.57
2017-10-19T18:26:11.344Z,17.80
2017-10-19T18:28:41.548Z,18.00
2017-10-19T18:31:10.847Z,15.90
2017-10-19T18:33:39.495Z,18.10
2017-10-19T18:36:08.771Z,17.70
2017-10-19T18:38:37.749Z,18.07
2017-10-19T18:41:05.879Z,18.17
2017-10-19T18:43:37.847Z,17.13
2017-10-19T18:46:05.970Z,17.27
2017-10-19T18:48:34.945Z,18.27
2017-10-19T18:51:05.430Z,18.00
2017-10-19T18:53:33.573Z,15.47
2017-10-19T18:56:02.873Z,18.80
2017-10-19T18:58:32.266Z,14.53
2017-10-19T19:01:00.390Z,17.17
2017-10-19T19:03:29.108Z,14.77
2017-10-19T19:06:00.761Z,15.77
2017-10-19T19:08:28.909Z,15.10
2017-10-19T19:11:00.902Z,15.33
2017-10-19T19:13:31.058Z,14.87
2017-10-19T19:16:00.239Z,14.13
2017-10-19T19:18:29.111Z,14.60
2017-10-19T19:20:59.231Z,15.67
2017-10-19T19:23:28.171Z,15.73
2017-10-19T19:25:56.325Z,15.77
2017-10-19T19:28:31.105Z,15.77
2017-10-19T19:30:59.708Z,15.30
2017-10-19T19:33:31.058Z,14.83
2017-10-19T19:36:03.188Z,15.10
2017-10-19T19:38:31.399Z,16.17
2017-10-19T19:41:02.101Z,14.87
2017-10-19T19:43:33.797Z,15.53
2017-10-19T19:46:02.696Z,15.10
2017-10-19T19:48:32.614Z,14.20
2017-10-19T19:51:02.948Z,14.10
2017-10-19T19:53:32.955Z,14.23
2017-10-19T19:56:01.081Z,15.37
2017-10-19T19:58:29.862Z,14.23
2017-10-19T20:00:59.407Z,13.20
2017-10-19T20:03:27.626Z,12.60
2017-10-19T20:05:58.344Z,13.13
2017-10-19T20:08:28.585Z,13.53
2017-10-19T20:10:58.044Z,14.40
2017-10-19T20:13:26.243Z,14.20
2017-10-19T20:15:55.498Z,14.93
2017-10-19T20:18:25.266Z,14.93
2017-10-19T20:20:54.020Z,15.80
2017-10-19T20:23:22.652Z,14.87
2017-10-19T20:25:50.791Z,14.57
2017-10-19T20:28:19.081Z,14.47
2017-10-19T20:30:47.216Z,13.80
2017-10-19T20:33:16.145Z,13.87
2017-10-19T20:35:46.630Z,13.73
2017-10-19T20:38:14.753Z,13.93
2017-10-19T20:40:44.856Z,14.40
2017-10-19T20:43:13.437Z,14.37
2017-10-19T20:45:46.120Z,13.20
2017-10-19T20:48:17.080Z,13.80
2017-10-19T20:50:46.932Z,14.53
2017-10-19T20:53:18.600Z,14.00
2017-10-19T20:55:50.567Z,14.10
2017-10-19T20:58:20.758Z,13.50
2017-10-19T21:00:51.403Z,14.07
2017-10-19T21:03:21.329Z,14.17
2017-10-19T21:05:50.558Z,14.50
2017-10-19T21:08:20.112Z,15.63
2017-10-19T21:10:50.786Z,14.10
2017-10-19T21:13:21.708Z,13.80
2017-10-19T21:15:50.796Z,14.73
2017-10-19T21:18:19.719Z,14.97
2017-10-19T21:20:49.682Z,13.40
2017-10-19T21:23:20.532Z,13.63
2017-10-19T21:25:50.100Z,14.60
2017-10-19T21:28:20.291Z,14.77
2017-10-19T21:30:50.597Z,15.80
2017-10-19T21:33:19.689Z,17.03
2017-10-19T21:35:52.801Z,15.70
2017-10-19T21:38:23.185Z,16.00
2017-10-19T21:40:51.397Z,16.70
2017-10-19T21:43:19.573Z,16.33
2017-10-19T21:45:48.529Z,15.67
2017-10-19T21:48:18.021Z,16.73
2017-10-19T21:53:27.298Z,16.07
2017-10-19T21:56:05.936Z,15.33
2017-10-19T21:58:34.244Z,14.87
2017-10-19T22:01:10.487Z,15.27
2017-10-19T22:03:40.823Z,16.23
2017-10-19T22:06:11.401Z,15.90
2017-10-19T22:08:39.980Z,15.20
2017-10-19T22:11:08.606Z,15.40
2017-10-19T22:13:37.729Z,16.30
2017-10-19T22:16:06.326Z,16.03
2017-10-19T22:18:38.346Z,14.47
2017-10-19T22:21:06.552Z,15.27
2017-10-19T22:23:34.668Z,15.47
2017-10-19T22:26:05.778Z,16.00
2017-10-19T22:28:33.917Z,15.57
2017-10-19T22:31:05.887Z,15.60
2017-10-19T22:33:34.010Z,15.93
2017-10-19T22:36:04.597Z,15.67
2017-10-19T22:38:34.693Z,14.07
2017-10-19T22:41:05.207Z,15.63
2017-10-19T22:43:34.328Z,17.07
2017-10-19T22:46:04.268Z,17.47
2017-10-19T22:48:32.814Z,15.50
2017-10-19T22:51:02.120Z,14.80
2017-10-19T22:53:32.335Z,16.43
2017-10-19T22:56:00.493Z,16.17
2017-10-19T22:58:29.462Z,17.13
2017-10-19T23:00:59.268Z,15.97
2017-10-19T23:03:28.048Z,16.90
2017-10-19T23:05:56.171Z,16.70
2017-10-19T23:08:25.033Z,14.90
2017-10-19T23:10:53.910Z,15.37
2017-10-19T23:13:25.754Z,15.83
2017-10-19T23:15:53.903Z,15.37
2017-10-19T23:18:23.451Z,15.00
2017-10-19T23:20:56.340Z,14.50
2017-10-19T23:23:25.293Z,15.30
2017-10-19T23:25:55.657Z,15.10
2017-10-19T23:28:25.809Z,14.50
2017-10-19T23:30:53.939Z,14.57
2017-10-19T23:33:26.017Z,14.40
2017-10-19T23:35:57.118Z,14.13
2017-10-19T23:38:26.684Z,14.30
2017-10-19T23:40:54.804Z,13.27
2017-10-19T23:43:23.423Z,13.33
2017-10-19T23:45:52.309Z,14.10
2017-10-19T23:48:21.225Z,14.67
2017-10-19T23:50:49.341Z,13.40
2017-10-19T23:53:17.493Z,14.63
2017-10-19T23:55:45.613Z,14.57
2017-10-19T23:58:13.723Z,13.90
